sensor_id;sensor_type;location;lat;lon;timestamp;pressure;altitude;pressure_sealevel;temperature;humidity
37710;BME280;60223;34.854;-92.408;2022-11-11T00:01:29;100197.00;;;22.82;33.64
37710;BME280;60223;34.854;-92.408;2022-11-11T00:03:58;100200.23;;;23.21;32.91
37710;BME280;60223;34.854;-92.408;2022-11-11T00:06:22;100194.58;;;23.31;33.33
37710;BME280;60223;34.854;-92.408;2022-11-11T00:08:49;100194.47;;;22.97;33.46
37710;BME280;60223;34.854;-92.408;2022-11-11T00:11:15;100196.83;;;22.95;33.53
37710;BME280;60223;34.854;-92.408;2022-11-11T00:13:39;100195.73;;;23.14;33.03
37710;BME280;60223;34.854;-92.408;2022-11-11T00:16:08;100194.05;;;23.24;33.16
37710;BME280;60223;34.854;-92.408;2022-11-11T00:18:29;100194.22;;;23.51;33.14
37710;BME280;60223;34.854;-92.408;2022-11-11T00:20:56;100189.31;;;23.11;33.33
37710;BME280;60223;34.854;-92.408;2022-11-11T00:23:24;100189.15;;;22.92;33.28
37710;BME280;60223;34.854;-92.408;2022-11-11T00:25:50;100186.94;;;23.05;33.40
37710;BME280;60223;34.854;-92.408;2022-11-11T00:28:12;100187.82;;;22.92;33.51
37710;BME280;60223;34.854;-92.408;2022-11-11T00:30:38;100186.58;;;23.29;33.10
37710;BME280;60223;34.854;-92.408;2022-11-11T00:33:03;100183.61;;;23.47;32.91
37710;BME280;60223;34.854;-92.408;2022-11-11T00:35:28;100184.53;;;23.05;33.36
37710;BME280;60223;34.854;-92.408;2022-11-11T00:37:54;100186.95;;;23.27;33.10
37710;BME280;60223;34.854;-92.408;2022-11-11T00:40:20;100186.03;;;23.27;33.10
37710;BME280;60223;34.854;-92.408;2022-11-11T00:42:46;100182.52;;;23.28;33.38
37710;BME280;60223;34.854;-92.408;2022-11-11T00:45:12;100180.17;;;23.14;33.30
37710;BME280;60223;34.854;-92.408;2022-11-11T00:47:37;100184.65;;;23.33;33.10
37710;BME280;60223;34.854;-92.408;2022-11-11T00:50:03;100184.97;;;23.06;33.38
37710;BME280;60223;34.854;-92.408;2022-11-11T00:52:28;100181.54;;;23.16;33.28
37710;BME280;60223;34.854;-92.408;2022-11-11T00:54:54;100178.18;;;23.16;33.26
37710;BME280;60223;34.854;-92.408;2022-11-11T00:57:19;100176.34;;;23.20;33.24
37710;BME280;60223;34.854;-92.408;2022-11-11T00:59:45;100179.06;;;23.05;33.40
37710;BME280;60223;34.854;-92.408;2022-11-11T01:02:10;100179.39;;;22.70;33.55
37710;BME280;60223;34.854;-92.408;2022-11-11T01:04:36;100177.88;;;23.46;33.18
37710;BME280;60223;34.854;-92.408;2022-11-11T01:07:01;100177.17;;;23.13;33.31
37710;BME280;60223;34.854;-92.408;2022-11-11T01:09:27;100176.97;;;22.92;33.27
37710;BME280;60223;34.854;-92.408;2022-11-11T01:11:53;100175.50;;;23.17;33.24
37710;BME280;60223;34.854;-92.408;2022-11-11T01:14:18;100174.64;;;23.07;33.36
37710;BME280;60223;34.854;-92.408;2022-11-11T01:16:44;100171.82;;;23.05;33.38
37710;BME280;60223;34.854;-92.408;2022-11-11T01:19:10;100171.78;;;23.39;33.28
37710;BME280;60223;34.854;-92.408;2022-11-11T01:21:35;100171.62;;;23.02;33.43
37710;BME280;60223;34.854;-92.408;2022-11-11T01:24:00;100173.63;;;23.30;33.38
37710;BME280;60223;34.854;-92.408;2022-11-11T01:26:27;100175.16;;;23.11;33.31
37710;BME280;60223;34.854;-92.408;2022-11-11T01:28:54;100180.85;;;23.20;33.48
37710;BME280;60223;34.854;-92.408;2022-11-11T01:31:19;100186.30;;;23.01;33.70
37710;BME280;60223;34.854;-92.408;2022-11-11T01:33:44;100194.55;;;23.20;33.47
37710;BME280;60223;34.854;-92.408;2022-11-11T01:36:11;100195.19;;;23.02;33.40
37710;BME280;60223;34.854;-92.408;2022-11-11T01:38:35;100194.40;;;23.04;33.64
37710;BME280;60223;34.854;-92.408;2022-11-11T01:41:00;100195.21;;;23.12;33.57
37710;BME280;60223;34.854;-92.408;2022-11-11T01:43:26;100194.08;;;22.93;33.47
37710;BME280;60223;34.854;-92.408;2022-11-11T01:45:54;100190.55;;;23.00;33.37
37710;BME280;60223;34.854;-92.408;2022-11-11T01:48:23;100189.37;;;23.06;33.60
37710;BME280;60223;34.854;-92.408;2022-11-11T01:50:43;100189.19;;;22.98;33.43
37710;BME280;60223;34.854;-92.408;2022-11-11T01:53:08;100182.82;;;22.95;33.71
37710;BME280;60223;34.854;-92.408;2022-11-11T01:55:34;100180.23;;;22.98;33.43
37710;BME280;60223;34.854;-92.408;2022-11-11T01:58:02;100177.52;;;23.23;33.40
37710;BME280;60223;34.854;-92.408;2022-11-11T02:00:25;100171.98;;;23.01;33.65
37710;BME280;60223;34.854;-92.408;2022-11-11T02:02:54;100166.84;;;23.40;33.17
37710;BME280;60223;34.854;-92.408;2022-11-11T02:05:18;100160.85;;;22.93;33.44
37710;BME280;60223;34.854;-92.408;2022-11-11T02:07:42;100155.04;;;22.98;33.38
37710;BME280;60223;34.854;-92.408;2022-11-11T02:10:10;100151.77;;;23.22;33.37
37710;BME280;60223;34.854;-92.408;2022-11-11T02:12:34;100149.67;;;22.99;33.61
37710;BME280;60223;34.854;-92.408;2022-11-11T02:15:01;100150.12;;;22.96;33.66
37710;BME280;60223;34.854;-92.408;2022-11-11T02:17:27;100153.96;;;22.92;33.69
37710;BME280;60223;34.854;-92.408;2022-11-11T02:19:54;100154.61;;;23.05;33.51
37710;BME280;60223;34.854;-92.408;2022-11-11T02:22:20;100153.73;;;22.92;33.37
37710;BME280;60223;34.854;-92.408;2022-11-11T02:24:42;100158.17;;;23.15;33.36
37710;BME280;60223;34.854;-92.408;2022-11-11T02:27:08;100160.25;;;23.09;33.42
37710;BME280;60223;34.854;-92.408;2022-11-11T02:29:33;100155.58;;;22.93;33.32
37710;BME280;60223;34.854;-92.408;2022-11-11T02:31:59;100149.26;;;23.07;33.40
37710;BME280;60223;34.854;-92.408;2022-11-11T02:34:31;100147.03;;;22.77;33.50
37710;BME280;60223;34.854;-92.408;2022-11-11T02:36:50;100142.80;;;23.19;33.26
37710;BME280;60223;34.854;-92.408;2022-11-11T02:39:15;100144.78;;;23.15;33.30
37710;BME280;60223;34.854;-92.408;2022-11-11T02:41:43;100143.33;;;22.89;33.34
37710;BME280;60223;34.854;-92.408;2022-11-11T02:44:07;100138.55;;;22.74;33.48
37710;BME280;60223;34.854;-92.408;2022-11-11T02:46:32;100137.05;;;22.98;33.46
37710;BME280;60223;34.854;-92.408;2022-11-11T02:48:58;100130.08;;;22.59;33.63
37710;BME280;60223;34.854;-92.408;2022-11-11T02:51:23;100130.40;;;22.93;33.49
37710;BME280;60223;34.854;-92.408;2022-11-11T02:53:49;100135.37;;;22.62;33.58
37710;BME280;60223;34.854;-92.408;2022-11-11T02:56:15;100135.07;;;22.86;33.56
37710;BME280;60223;34.854;-92.408;2022-11-11T02:58:40;100135.34;;;22.80;33.62
37710;BME280;60223;34.854;-92.408;2022-11-11T03:01:06;100134.34;;;23.00;33.35
37710;BME280;60223;34.854;-92.408;2022-11-11T03:03:32;100134.18;;;22.97;33.38
37710;BME280;60223;34.854;-92.408;2022-11-11T03:05:57;100137.22;;;22.93;33.40
37710;BME280;60223;34.854;-92.408;2022-11-11T03:08:23;100138.51;;;22.85;33.47
37710;BME280;60223;34.854;-92.408;2022-11-11T03:10:49;100142.97;;;22.85;33.48
37710;BME280;60223;34.854;-92.408;2022-11-11T03:13:14;100146.36;;;23.12;33.15
37710;BME280;60223;34.854;-92.408;2022-11-11T03:15:41;100149.68;;;22.91;33.36
37710;BME280;60223;34.854;-92.408;2022-11-11T03:18:05;100151.03;;;22.97;33.28
37710;BME280;60223;34.854;-92.408;2022-11-11T03:20:31;100151.81;;;23.10;33.09
37710;BME280;60223;34.854;-92.408;2022-11-11T03:23:04;100150.01;;;22.97;33.23
37710;BME280;60223;34.854;-92.408;2022-11-11T03:25:22;100150.44;;;23.05;33.11
37710;BME280;60223;34.854;-92.408;2022-11-11T03:27:48;100148.80;;;22.89;33.30
37710;BME280;60223;34.854;-92.408;2022-11-11T03:30:14;100146.78;;;22.88;33.30
37710;BME280;60223;34.854;-92.408;2022-11-11T03:32:39;100146.40;;;22.76;33.46
37710;BME280;60223;34.854;-92.408;2022-11-11T03:35:05;100143.92;;;22.98;33.16
37710;BME280;60223;34.854;-92.408;2022-11-11T03:37:30;100147.67;;;23.10;33.01
37710;BME280;60223;34.854;-92.408;2022-11-11T03:39:56;100149.36;;;23.15;32.94
37710;BME280;60223;34.854;-92.408;2022-11-11T03:42:22;100155.07;;;22.90;33.19
37710;BME280;60223;34.854;-92.408;2022-11-11T03:44:48;100155.66;;;22.94;33.12
37710;BME280;60223;34.854;-92.408;2022-11-11T03:47:13;100155.26;;;22.94;33.13
37710;BME280;60223;34.854;-92.408;2022-11-11T03:49:38;100152.70;;;22.95;33.08
37710;BME280;60223;34.854;-92.408;2022-11-11T03:52:04;100149.72;;;22.85;33.20
37710;BME280;60223;34.854;-92.408;2022-11-11T03:54:30;100144.90;;;22.81;33.21
37710;BME280;60223;34.854;-92.408;2022-11-11T03:56:55;100141.31;;;23.03;32.93
37710;BME280;60223;34.854;-92.408;2022-11-11T03:59:21;100140.46;;;23.34;33.12
37710;BME280;60223;34.854;-92.408;2022-11-11T04:01:46;100139.14;;;23.06;32.87
37710;BME280;60223;34.854;-92.408;2022-11-11T04:04:12;100138.12;;;22.87;33.08
37710;BME280;60223;34.854;-92.408;2022-11-11T04:06:38;100142.27;;;23.12;32.77
37710;BME280;60223;34.854;-92.408;2022-11-11T04:09:06;100139.29;;;23.03;32.84
37710;BME280;60223;34.854;-92.408;2022-11-11T04:11:30;100137.78;;;22.90;32.98
37710;BME280;60223;34.854;-92.408;2022-11-11T04:13:55;100139.06;;;22.85;33.02
37710;BME280;60223;34.854;-92.408;2022-11-11T04:16:20;100130.69;;;23.03;33.08
37710;BME280;60223;34.854;-92.408;2022-11-11T04:18:46;100120.52;;;22.81;33.04
37710;BME280;60223;34.854;-92.408;2022-11-11T04:21:12;100121.83;;;22.94;32.86
37710;BME280;60223;34.854;-92.408;2022-11-11T04:23:37;100123.91;;;22.98;32.81
37710;BME280;60223;34.854;-92.408;2022-11-11T04:26:03;100119.58;;;23.13;32.88
37710;BME280;60223;34.854;-92.408;2022-11-11T04:28:29;100117.44;;;23.45;32.77
37710;BME280;60223;34.854;-92.408;2022-11-11T04:30:54;100119.77;;;22.77;32.99
37710;BME280;60223;34.854;-92.408;2022-11-11T04:33:20;100117.63;;;23.10;32.85
37710;BME280;60223;34.854;-92.408;2022-11-11T04:35:48;100111.54;;;22.83;32.89
37710;BME280;60223;34.854;-92.408;2022-11-11T04:38:11;100109.62;;;22.89;32.79
37710;BME280;60223;34.854;-92.408;2022-11-11T04:40:37;100105.87;;;22.81;32.87
37710;BME280;60223;34.854;-92.408;2022-11-11T04:43:02;100101.85;;;22.81;32.86
37710;BME280;60223;34.854;-92.408;2022-11-11T04:45:28;100101.82;;;22.53;33.14
37710;BME280;60223;34.854;-92.408;2022-11-11T04:47:58;100103.87;;;23.12;33.00
37710;BME280;60223;34.854;-92.408;2022-11-11T04:50:19;100098.73;;;22.79;32.83
37710;BME280;60223;34.854;-92.408;2022-11-11T04:52:46;100095.67;;;22.81;32.78
37710;BME280;60223;34.854;-92.408;2022-11-11T04:55:11;100094.45;;;22.86;32.71
37710;BME280;60223;34.854;-92.408;2022-11-11T04:57:38;100094.65;;;22.68;32.90
37710;BME280;60223;34.854;-92.408;2022-11-11T05:00:02;100096.29;;;22.77;32.79
37710;BME280;60223;34.854;-92.408;2022-11-11T05:02:27;100093.67;;;22.67;32.89
37710;BME280;60223;34.854;-92.408;2022-11-11T05:04:53;100091.72;;;23.15;32.86
37710;BME280;60223;34.854;-92.408;2022-11-11T05:07:19;100084.87;;;22.79;32.69
37710;BME280;60223;34.854;-92.408;2022-11-11T05:09:44;100085.05;;;22.97;32.73
37710;BME280;60223;34.854;-92.408;2022-11-11T05:12:11;100085.26;;;22.71;32.74
37710;BME280;60223;34.854;-92.408;2022-11-11T05:14:36;100080.91;;;22.97;32.71
37710;BME280;60223;34.854;-92.408;2022-11-11T05:17:02;100080.70;;;22.83;32.57
37710;BME280;60223;34.854;-92.408;2022-11-11T05:19:27;100083.74;;;22.83;32.55
37710;BME280;60223;34.854;-92.408;2022-11-11T05:21:54;100085.13;;;23.14;32.45
37710;BME280;60223;34.854;-92.408;2022-11-11T05:24:18;100081.63;;;22.91;32.69
37710;BME280;60223;34.854;-92.408;2022-11-11T05:26:44;100076.42;;;22.65;32.70
37710;BME280;60223;34.854;-92.408;2022-11-11T05:29:09;100070.50;;;22.85;32.41
37710;BME280;60223;34.854;-92.408;2022-11-11T05:31:35;100061.54;;;22.96;32.58
37710;BME280;60223;34.854;-92.408;2022-11-11T05:33:58;100056.82;;;22.96;32.53
37710;BME280;60223;34.854;-92.408;2022-11-11T05:36:26;100055.08;;;23.38;32.34
37710;BME280;60223;34.854;-92.408;2022-11-11T05:38:52;100055.63;;;22.77;32.45
37710;BME280;60223;34.854;-92.408;2022-11-11T05:41:18;100055.84;;;22.91;32.24
37710;BME280;60223;34.854;-92.408;2022-11-11T05:43:43;100051.44;;;22.87;32.27
37710;BME280;60223;34.854;-92.408;2022-11-11T05:46:09;100050.47;;;22.92;32.18
37710;BME280;60223;34.854;-92.408;2022-11-11T05:48:35;100050.44;;;23.10;32.22
37710;BME280;60223;34.854;-92.408;2022-11-11T05:51:00;100044.73;;;23.01;32.03
37710;BME280;60223;34.854;-92.408;2022-11-11T05:53:25;100041.64;;;23.34;31.91
37710;BME280;60223;34.854;-92.408;2022-11-11T05:55:52;100039.73;;;23.04;31.94
37710;BME280;60223;34.854;-92.408;2022-11-11T05:58:17;100039.00;;;22.92;32.05
37710;BME280;60223;34.854;-92.408;2022-11-11T06:00:42;100035.19;;;23.25;31.92
37710;BME280;60223;34.854;-92.408;2022-11-11T06:03:08;100031.76;;;23.23;31.94
37710;BME280;60223;34.854;-92.408;2022-11-11T06:05:34;100026.48;;;23.02;31.87
37710;BME280;60223;34.854;-92.408;2022-11-11T06:07:59;100018.45;;;23.20;31.93
37710;BME280;60223;34.854;-92.408;2022-11-11T06:10:25;100019.61;;;23.40;31.94
37710;BME280;60223;34.854;-92.408;2022-11-11T06:12:50;100020.48;;;22.99;31.83
37710;BME280;60223;34.854;-92.408;2022-11-11T06:15:15;100021.65;;;23.14;31.66
37710;BME280;60223;34.854;-92.408;2022-11-11T06:17:41;100021.85;;;23.66;31.58
37710;BME280;60223;34.854;-92.408;2022-11-11T06:20:08;100024.54;;;23.28;31.71
37710;BME280;60223;34.854;-92.408;2022-11-11T06:39:32;100028.34;;;23.02;31.87
37710;BME280;60223;34.854;-92.408;2022-11-11T06:41:57;100028.97;;;23.21;31.89
37710;BME280;60223;34.854;-92.408;2022-11-11T06:44:23;100032.07;;;23.27;31.84
37710;BME280;60223;34.854;-92.408;2022-11-11T06:46:49;100033.04;;;22.77;31.83
37710;BME280;60223;34.854;-92.408;2022-11-11T06:49:14;100031.28;;;22.71;31.88
37710;BME280;60223;34.854;-92.408;2022-11-11T06:51:40;100032.37;;;22.98;31.84
37710;BME280;60223;34.854;-92.408;2022-11-11T06:54:06;100029.63;;;22.96;31.84
37710;BME280;60223;34.854;-92.408;2022-11-11T06:56:31;100032.67;;;22.89;31.89
37710;BME280;60223;34.854;-92.408;2022-11-11T06:58:57;100032.43;;;23.12;31.89
37710;BME280;60223;34.854;-92.408;2022-11-11T07:01:23;100030.91;;;22.99;31.76
37710;BME280;60223;34.854;-92.408;2022-11-11T07:03:49;100026.26;;;23.09;31.92
37710;BME280;60223;34.854;-92.408;2022-11-11T07:06:14;100025.71;;;22.90;31.84
37710;BME280;60223;34.854;-92.408;2022-11-11T07:08:39;100027.64;;;22.57;31.90
37710;BME280;60223;34.854;-92.408;2022-11-11T07:11:05;100025.58;;;22.88;31.82
37710;BME280;60223;34.854;-92.408;2022-11-11T07:13:31;100019.58;;;22.82;31.62
37710;BME280;60223;34.854;-92.408;2022-11-11T07:15:56;100013.84;;;23.06;31.82
37710;BME280;60223;34.854;-92.408;2022-11-11T07:18:22;100012.58;;;23.00;31.61
37710;BME280;60223;34.854;-92.408;2022-11-11T07:20:48;100015.23;;;23.14;31.72
37710;BME280;60223;34.854;-92.408;2022-11-11T07:23:10;100012.36;;;22.70;31.93
37710;BME280;60223;34.854;-92.408;2022-11-11T07:25:38;100017.81;;;23.51;31.27
37710;BME280;60223;34.854;-92.408;2022-11-11T07:28:04;100018.81;;;23.08;31.46
37710;BME280;60223;34.854;-92.408;2022-11-11T07:30:30;100019.88;;;23.12;31.62
37710;BME280;60223;34.854;-92.408;2022-11-11T07:32:56;100021.98;;;23.31;31.42
37710;BME280;60223;34.854;-92.408;2022-11-11T07:35:22;100015.45;;;23.38;31.36
37710;BME280;60223;34.854;-92.408;2022-11-11T07:37:47;100016.09;;;22.87;31.40
37710;BME280;60223;34.854;-92.408;2022-11-11T07:40:15;100010.94;;;23.23;31.48
37710;BME280;60223;34.854;-92.408;2022-11-11T07:42:39;100007.55;;;23.47;31.19
37710;BME280;60223;34.854;-92.408;2022-11-11T07:45:04;100004.10;;;23.33;31.31
37710;BME280;60223;34.854;-92.408;2022-11-11T07:47:29;100001.06;;;23.30;31.34
37710;BME280;60223;34.854;-92.408;2022-11-11T07:49:55;100003.07;;;23.24;31.42
37710;BME280;60223;34.854;-92.408;2022-11-11T07:52:20;100005.78;;;23.62;30.92
37710;BME280;60223;34.854;-92.408;2022-11-11T07:54:46;100013.10;;;23.69;30.90
37710;BME280;60223;34.854;-92.408;2022-11-11T07:57:12;100016.02;;;23.09;31.18
37710;BME280;60223;34.854;-92.408;2022-11-11T07:59:38;100018.78;;;23.32;31.22
37710;BME280;60223;34.854;-92.408;2022-11-11T08:02:03;100016.55;;;24.07;30.39
37710;BME280;60223;34.854;-92.408;2022-11-11T08:04:29;100009.12;;;22.91;31.11
37710;BME280;60223;34.854;-92.408;2022-11-11T08:06:54;99997.58;;;23.59;30.88
37710;BME280;60223;34.854;-92.408;2022-11-11T08:09:20;99993.78;;;23.44;31.05
37710;BME280;60223;34.854;-92.408;2022-11-11T08:11:45;99987.86;;;23.63;30.80
37710;BME280;60223;34.854;-92.408;2022-11-11T08:14:11;99984.96;;;23.83;30.50
37710;BME280;60223;34.854;-92.408;2022-11-11T08:16:36;99980.34;;;23.74;30.88
37710;BME280;60223;34.854;-92.408;2022-11-11T08:19:02;99979.42;;;23.59;30.73
37710;BME280;60223;34.854;-92.408;2022-11-11T08:21:28;99973.26;;;23.46;30.68
37710;BME280;60223;34.854;-92.408;2022-11-11T08:23:54;99972.30;;;23.90;30.36
37710;BME280;60223;34.854;-92.408;2022-11-11T08:26:20;99979.97;;;23.33;30.94
37710;BME280;60223;34.854;-92.408;2022-11-11T08:28:45;99981.82;;;23.25;31.06
37710;BME280;60223;34.854;-92.408;2022-11-11T08:31:11;99974.99;;;23.28;31.02
37710;BME280;60223;34.854;-92.408;2022-11-11T08:33:36;99965.58;;;22.91;31.47
37710;BME280;60223;34.854;-92.408;2022-11-11T08:36:02;99965.26;;;22.99;31.34
37710;BME280;60223;34.854;-92.408;2022-11-11T08:38:28;99955.69;;;23.48;30.80
37710;BME280;60223;34.854;-92.408;2022-11-11T08:40:54;99944.57;;;22.91;31.38
37710;BME280;60223;34.854;-92.408;2022-11-11T08:43:19;99928.88;;;23.12;31.15
37710;BME280;60223;34.854;-92.408;2022-11-11T08:45:45;99924.82;;;23.08;31.19
37710;BME280;60223;34.854;-92.408;2022-11-11T08:48:11;99923.90;;;23.43;31.03
37710;BME280;60223;34.854;-92.408;2022-11-11T08:50:36;99921.66;;;22.94;31.24
37710;BME280;60223;34.854;-92.408;2022-11-11T08:53:02;99919.06;;;23.22;30.91
37710;BME280;60223;34.854;-92.408;2022-11-11T08:55:27;99914.45;;;23.45;30.93
37710;BME280;60223;34.854;-92.408;2022-11-11T08:57:58;99900.36;;;23.28;31.15
37710;BME280;60223;34.854;-92.408;2022-11-11T09:00:19;99900.68;;;23.45;30.62
37710;BME280;60223;34.854;-92.408;2022-11-11T09:02:44;99905.81;;;23.59;30.45
37710;BME280;60223;34.854;-92.408;2022-11-11T09:05:10;99912.05;;;23.55;30.50
37710;BME280;60223;34.854;-92.408;2022-11-11T09:07:33;99911.22;;;23.98;29.92
37710;BME280;60223;34.854;-92.408;2022-11-11T09:10:01;99906.66;;;23.95;29.97
37710;BME280;60223;34.854;-92.408;2022-11-11T09:12:27;99893.67;;;23.85;30.03
37710;BME280;60223;34.854;-92.408;2022-11-11T09:14:53;99893.34;;;23.63;30.19
37710;BME280;60223;34.854;-92.408;2022-11-11T09:17:18;99895.36;;;24.26;30.05
37710;BME280;60223;34.854;-92.408;2022-11-11T09:19:44;99895.52;;;24.00;29.83
37710;BME280;60223;34.854;-92.408;2022-11-11T09:22:09;99890.94;;;24.12;29.65
37710;BME280;60223;34.854;-92.408;2022-11-11T09:24:35;99883.67;;;23.90;29.87
37710;BME280;60223;34.854;-92.408;2022-11-11T09:27:01;99880.70;;;23.79;29.96
37710;BME280;60223;34.854;-92.408;2022-11-11T09:29:24;99882.40;;;24.56;29.14
37710;BME280;60223;34.854;-92.408;2022-11-11T09:31:52;99875.77;;;24.22;29.46
37710;BME280;60223;34.854;-92.408;2022-11-11T09:34:18;99869.10;;;24.30;29.37
37710;BME280;60223;34.854;-92.408;2022-11-11T09:36:43;99868.17;;;24.21;29.44
37710;BME280;60223;34.854;-92.408;2022-11-11T09:39:09;99867.29;;;24.29;29.59
37710;BME280;60223;34.854;-92.408;2022-11-11T09:41:44;99874.26;;;24.36;29.25
37710;BME280;60223;34.854;-92.408;2022-11-11T09:44:02;99868.87;;;23.87;29.69
37710;BME280;60223;34.854;-92.408;2022-11-11T09:46:37;99857.27;;;24.33;29.74
37710;BME280;60223;34.854;-92.408;2022-11-11T09:49:11;99845.64;;;24.25;29.30
37710;BME280;60223;34.854;-92.408;2022-11-11T09:51:22;99834.90;;;23.86;29.64
37710;BME280;60223;34.854;-92.408;2022-11-11T09:53:46;99822.61;;;24.03;29.49
37710;BME280;60223;34.854;-92.408;2022-11-11T09:56:11;99814.80;;;23.77;29.74
37710;BME280;60223;34.854;-92.408;2022-11-11T09:58:37;99819.62;;;23.62;29.83
37710;BME280;60223;34.854;-92.408;2022-11-11T10:01:04;99826.39;;;24.04;29.45
37710;BME280;60223;34.854;-92.408;2022-11-11T10:03:26;99823.52;;;24.39;29.06
37710;BME280;60223;34.854;-92.408;2022-11-11T10:05:55;99807.19;;;24.84;28.83
37710;BME280;60223;34.854;-92.408;2022-11-11T10:08:19;99813.35;;;24.19;29.43
37710;BME280;60223;34.854;-92.408;2022-11-11T10:10:45;99841.25;;;24.08;29.32
37710;BME280;60223;34.854;-92.408;2022-11-11T10:13:16;99857.93;;;24.10;29.26
37710;BME280;60223;34.854;-92.408;2022-11-11T10:15:40;99861.28;;;24.28;29.06
37710;BME280;60223;34.854;-92.408;2022-11-11T10:18:10;99860.14;;;23.69;29.40
37710;BME280;60223;34.854;-92.408;2022-11-11T10:20:28;99868.77;;;24.27;29.07
37710;BME280;60223;34.854;-92.408;2022-11-11T10:22:53;99870.41;;;24.62;28.67
37710;BME280;60223;34.854;-92.408;2022-11-11T10:25:23;99877.08;;;24.23;28.78
37710;BME280;60223;34.854;-92.408;2022-11-11T10:27:44;99882.66;;;24.02;29.24
37710;BME280;60223;34.854;-92.408;2022-11-11T10:30:16;99892.83;;;23.99;29.27
37710;BME280;60223;34.854;-92.408;2022-11-11T10:32:36;99895.64;;;23.91;29.64
37710;BME280;60223;34.854;-92.408;2022-11-11T10:35:08;99890.38;;;23.64;29.62
37710;BME280;60223;34.854;-92.408;2022-11-11T10:37:29;99893.34;;;23.98;29.48
37710;BME280;60223;34.854;-92.408;2022-11-11T10:39:59;99898.31;;;23.77;29.43
37710;BME280;60223;34.854;-92.408;2022-11-11T10:42:18;99899.56;;;23.96;29.72
37710;BME280;60223;34.854;-92.408;2022-11-11T10:44:41;99902.64;;;23.46;29.77
37710;BME280;60223;34.854;-92.408;2022-11-11T10:47:09;99899.89;;;23.49;29.73
37710;BME280;60223;34.854;-92.408;2022-11-11T10:49:37;99896.74;;;23.17;29.75
37710;BME280;60223;34.854;-92.408;2022-11-11T10:52:04;99893.87;;;23.22;29.99
37710;BME280;60223;34.854;-92.408;2022-11-11T10:54:29;99891.40;;;23.88;29.25
37710;BME280;60223;34.854;-92.408;2022-11-11T10:56:55;99902.25;;;23.50;29.65
37710;BME280;60223;34.854;-92.408;2022-11-11T10:59:21;99899.25;;;23.33;30.06
37710;BME280;60223;34.854;-92.408;2022-11-11T11:01:47;99892.11;;;22.71;30.40
37710;BME280;60223;34.854;-92.408;2022-11-11T11:04:12;99891.86;;;23.21;29.94
37710;BME280;60223;34.854;-92.408;2022-11-11T11:06:36;99900.87;;;23.99;29.37
37710;BME280;60223;34.854;-92.408;2022-11-11T11:09:05;99904.13;;;23.58;29.50
37710;BME280;60223;34.854;-92.408;2022-11-11T11:11:28;99910.99;;;24.13;28.93
37710;BME280;60223;34.854;-92.408;2022-11-11T11:13:54;99920.84;;;23.22;29.83
37710;BME280;60223;34.854;-92.408;2022-11-11T11:16:19;99931.23;;;23.38;29.93
37710;BME280;60223;34.854;-92.408;2022-11-11T11:18:40;99937.27;;;24.09;29.12
37710;BME280;60223;34.854;-92.408;2022-11-11T11:21:08;99937.94;;;23.58;29.44
37710;BME280;60223;34.854;-92.408;2022-11-11T11:23:40;99939.98;;;23.59;29.45
37710;BME280;60223;34.854;-92.408;2022-11-11T11:25:58;99951.70;;;23.48;29.49
37710;BME280;60223;34.854;-92.408;2022-11-11T11:28:23;99959.06;;;23.43;29.55
37710;BME280;60223;34.854;-92.408;2022-11-11T11:30:58;99952.18;;;23.46;29.47
37710;BME280;60223;34.854;-92.408;2022-11-11T11:33:15;99959.48;;;23.57;29.34
37710;BME280;60223;34.854;-92.408;2022-11-11T11:35:42;99966.88;;;24.10;29.32
37710;BME280;60223;34.854;-92.408;2022-11-11T11:38:07;99956.47;;;24.02;29.12
37710;BME280;60223;34.854;-92.408;2022-11-11T11:40:46;99960.59;;;23.03;29.85
37710;BME280;60223;34.854;-92.408;2022-11-11T11:42:58;99970.60;;;23.08;30.07
37710;BME280;60223;34.854;-92.408;2022-11-11T11:45:26;99982.79;;;23.76;29.09
37710;BME280;60223;34.854;-92.408;2022-11-11T11:47:59;99980.19;;;24.03;29.28
37710;BME280;60223;34.854;-92.408;2022-11-11T11:52:48;99996.24;;;23.78;29.55
37710;BME280;60223;34.854;-92.408;2022-11-11T11:55:11;99981.67;;;22.99;30.06
37710;BME280;60223;34.854;-92.408;2022-11-11T11:57:43;99965.01;;;23.76;29.24
37710;BME280;60223;34.854;-92.408;2022-11-11T12:00:02;99954.54;;;23.36;29.44
37710;BME280;60223;34.854;-92.408;2022-11-11T12:02:36;99954.93;;;23.72;29.26
37710;BME280;60223;34.854;-92.408;2022-11-11T12:05:01;99962.43;;;23.12;29.63
37710;BME280;60223;34.854;-92.408;2022-11-11T12:07:23;99956.44;;;23.33;29.42
37710;BME280;60223;34.854;-92.408;2022-11-11T12:09:47;99950.98;;;23.41;29.51
37710;BME280;60223;34.854;-92.408;2022-11-11T12:12:12;99955.02;;;24.11;29.02
37710;BME280;60223;34.854;-92.408;2022-11-11T12:14:39;99964.90;;;23.54;29.59
37710;BME280;60223;34.854;-92.408;2022-11-11T12:17:04;99968.73;;;23.23;29.45
37710;BME280;60223;34.854;-92.408;2022-11-11T12:19:37;99962.41;;;23.50;29.62
37710;BME280;60223;34.854;-92.408;2022-11-11T12:21:58;99968.08;;;23.56;29.33
37710;BME280;60223;34.854;-92.408;2022-11-11T12:24:25;99974.11;;;23.34;29.77
37710;BME280;60223;34.854;-92.408;2022-11-11T12:26:46;99979.09;;;23.48;29.60
37710;BME280;60223;34.854;-92.408;2022-11-11T12:29:16;99981.21;;;22.67;30.18
37710;BME280;60223;34.854;-92.408;2022-11-11T12:31:41;99981.85;;;23.35;29.45
37710;BME280;60223;34.854;-92.408;2022-11-11T12:34:09;99989.38;;;23.52;29.51
37710;BME280;60223;34.854;-92.408;2022-11-11T12:36:28;99997.68;;;23.70;29.31
37710;BME280;60223;34.854;-92.408;2022-11-11T12:38:56;99998.34;;;23.25;29.58
37710;BME280;60223;34.854;-92.408;2022-11-11T12:41:22;99998.23;;;23.31;29.17
37710;BME280;60223;34.854;-92.408;2022-11-11T12:43:46;100004.15;;;23.85;29.12